Time;durP1;ratioP1;P1;durP2;ratioP2;P2;SDS_P1;SDS_P2;PMS_P1;PMS_P2;Temp;Humidity;BMP_temperature;BMP_pressure;BME280_temperature;BME280_humidity;BME280_pressure;Samples;Min_cycle;Max_cycle;Signal;HPM_P1;HPM_P2
2023/04/04 00:01:53;;;;;;;;;9.80;9.80;;;;;-0.29;66.81;98945.75;5090806;28;8872;-75
2023/04/04 00:04:22;;;;;;;;;10.00;8.80;;;;;0.03;66.83;98949.63;5089716;28;8867;-76
2023/04/04 00:06:51;;;;;;;;;10.20;10.20;;;;;0.25;66.28;98949.84;5091477;28;9639;-76
2023/04/04 00:09:20;;;;;;;;;10.00;10.00;;;;;-0.16;67.19;98938.19;5089435;28;9635;-77
2023/04/04 00:11:51;;;;;;;;;7.00;7.00;;;;;-0.14;67.29;98956.31;5069703;28;8889;-76
2023/04/04 00:14:20;;;;;;;;;10.00;9.00;;;;;-0.23;67.37;98951.88;5086587;28;8900;-75
2023/04/04 00:16:49;;;;;;;;;9.60;8.20;;;;;-0.16;66.98;98951.09;5069549;28;8861;-75
2023/04/04 00:19:18;;;;;;;;;10.40;9.40;;;;;-0.12;66.67;98949.44;5069686;28;9604;-75
2023/04/04 00:21:46;;;;;;;;;14.40;14.40;;;;;-0.52;67.81;98961.81;5077534;28;8966;-77
2023/04/04 00:24:15;;;;;;;;;9.80;7.80;;;;;-0.59;68.31;98952.25;5039265;28;8882;-75
2023/04/04 00:26:44;;;;;;;;;12.25;9.50;;;;;-0.71;69.50;98951.22;5051202;28;8834;-75
2023/04/04 00:29:14;;;;;;;;;7.80;7.80;;;;;-0.60;69.08;98943.59;5069411;28;8888;-76
2023/04/04 00:31:43;;;;;;;;;10.80;9.40;;;;;-0.51;67.78;98951.50;5070957;28;8866;-76
2023/04/04 00:34:12;;;;;;;;;12.00;10.50;;;;;-0.80;69.50;98929.56;5069139;28;8890;-78
2023/04/04 00:36:41;;;;;;;;;10.60;10.00;;;;;-0.79;69.97;98928.72;5069847;28;8853;-77
2023/04/04 00:39:10;;;;;;;;;13.00;10.50;;;;;-1.12;70.66;98935.94;5069396;28;9580;-76
2023/04/04 00:41:40;;;;;;;;;8.00;8.00;;;;;-1.10;70.66;98938.56;5064708;28;8853;-77
2023/04/04 00:44:10;;;;;;;;;12.50;12.00;;;;;-0.95;70.83;98928.47;5102368;28;8872;-77
2023/04/04 00:46:40;;;;;;;;;9.20;9.00;;;;;-1.03;69.75;98924.03;5068945;28;8865;-77
2023/04/04 00:49:09;;;;;;;;;10.00;10.00;;;;;-1.15;70.79;98920.41;5085984;28;8878;-76
2023/04/04 00:51:38;;;;;;;;;9.00;9.00;;;;;-1.71;71.59;98933.22;5070749;28;8988;-77
2023/04/04 00:54:07;;;;;;;;;12.50;11.00;;;;;-1.31;71.10;98934.78;5088835;28;8856;-77
2023/04/04 00:56:39;;;;;;;;;12.00;12.00;;;;;-1.57;72.79;98916.28;5107278;28;8840;-78
2023/04/04 00:59:08;;;;;;;;;10.00;10.00;;;;;-1.32;71.62;98927.88;5082893;28;9658;-78
2023/04/04 01:01:37;;;;;;;;;12.00;10.00;;;;;-1.13;71.27;98926.47;5069456;28;8927;-77
2023/04/04 01:04:07;;;;;;;;;9.40;9.40;;;;;-1.37;71.58;98928.63;5052270;28;8854;-82
2023/04/04 01:06:36;;;;;;;;;12.00;12.00;;;;;-1.36;71.99;98927.81;5052330;28;8842;-78
2023/04/04 01:09:05;;;;;;;;;11.00;9.25;;;;;-1.11;71.54;98919.66;5069508;28;8896;-79
2023/04/04 01:11:35;;;;;;;;;11.75;8.75;;;;;-1.31;72.11;98927.03;5068555;28;8935;-79
2023/04/04 01:14:05;;;;;;;;;12.00;12.00;;;;;-1.49;72.59;98925.00;5034985;28;8866;-79
2023/04/04 01:16:35;;;;;;;;;10.50;10.00;;;;;-1.31;71.97;98913.28;5068811;28;8873;-80
2023/04/04 01:19:10;;;;;;;;;14.00;12.50;;;;;-1.62;73.11;98929.91;5027588;28;8991;-81
2023/04/04 01:21:40;;;;;;;;;15.00;13.00;;;;;-1.41;72.88;98916.53;5011635;28;8848;-83
2023/04/04 01:24:13;;;;;;;;;20.50;15.75;;;;;-1.38;72.38;98930.34;5011990;28;8863;-84
2023/04/04 01:26:50;;;;;;;;;15.25;12.75;;;;;-1.26;72.73;98921.09;5011166;28;8866;-86
2023/04/04 01:29:19;;;;;;;;;14.50;12.50;;;;;-1.50;72.56;98914.69;5016132;28;8834;-86
2023/04/04 01:31:56;;;;;;;;;15.25;14.00;;;;;-1.57;73.39;98915.41;5046016;28;8820;-86
2023/04/04 01:34:35;;;;;;;;;13.00;10.25;;;;;-1.27;72.60;98919.38;5033335;28;8890;-85
2023/04/04 01:37:09;;;;;;;;;17.00;14.00;;;;;-1.03;71.24;98924.94;5035618;28;8862;-85
2023/04/04 01:39:43;;;;;;;;;13.25;13.25;;;;;-0.93;71.50;98908.72;5030830;28;8890;-87
2023/04/04 01:42:18;;;;;;;;;16.80;15.20;;;;;-0.87;71.25;98912.25;5048683;28;8862;-85
2023/04/04 01:44:55;;;;;;;;;6.25;6.25;;;;;-1.29;72.35;98912.47;5018908;28;8850;-85
2023/04/04 01:47:28;;;;;;;;;22.00;16.00;;;;;-1.46;72.49;98910.47;5018649;28;8880;-88
2023/04/04 01:49:57;;;;;;;;;10.50;9.50;;;;;-1.38;72.62;98908.88;5034372;28;8855;-84
2023/04/04 01:52:27;;;;;;;;;15.50;12.75;;;;;-1.24;71.89;98915.09;5055239;28;8852;-85
2023/04/04 01:54:56;;;;;;;;;18.75;16.50;;;;;-1.55;73.70;98914.59;5070853;28;8856;-82
2023/04/04 01:57:27;;;;;;;;;14.00;12.25;;;;;-1.57;74.03;98915.41;5070748;28;8830;-81
2023/04/04 01:59:56;;;;;;;;;17.00;13.50;;;;;-1.64;74.33;98909.25;5068215;28;8956;-80
2023/04/04 02:02:26;;;;;;;;;14.75;14.25;;;;;-1.88;75.11;98887.38;5085629;28;8885;-80
2023/04/04 02:04:55;;;;;;;;;14.00;13.50;;;;;-1.88;74.73;98905.41;5070216;28;8889;-79
2023/04/04 02:07:24;;;;;;;;;13.00;10.00;;;;;-1.89;75.82;98893.38;5070134;28;8857;-79
2023/04/04 02:09:53;;;;;;;;;15.75;15.00;;;;;-1.83;74.99;98904.63;5086374;28;8956;-78
2023/04/04 02:12:22;;;;;;;;;15.25;15.25;;;;;-1.82;75.03;98914.09;5086390;28;8976;-78
2023/04/04 02:14:52;;;;;;;;;17.50;15.50;;;;;-1.60;75.66;98916.22;5069160;28;9008;-77
2023/04/04 02:17:21;;;;;;;;;11.50;11.50;;;;;-1.89;75.26;98910.53;5082170;28;8914;-78
2023/04/04 02:19:50;;;;;;;;;15.75;14.75;;;;;-1.96;75.09;98917.25;5082725;28;8855;-77
2023/04/04 02:22:19;;;;;;;;;18.00;15.50;;;;;-1.73;75.22;98914.25;5082085;28;8871;-77
2023/04/04 02:24:47;;;;;;;;;15.50;14.25;;;;;-1.70;74.62;98912.59;5068629;28;8869;-78
2023/04/04 02:27:16;;;;;;;;;12.00;12.00;;;;;-1.61;74.43;98913.63;5085617;28;8833;-78
2023/04/04 02:29:45;;;;;;;;;15.25;15.25;;;;;-1.57;74.41;98900.81;5035187;28;8849;-77
2023/04/04 02:32:15;;;;;;;;;15.50;13.50;;;;;-1.94;75.90;98901.84;5067564;28;9150;-76
2023/04/04 02:34:44;;;;;;;;;16.50;16.50;;;;;-1.67;75.48;98901.50;5052347;28;8854;-77
2023/04/04 02:37:14;;;;;;;;;15.75;15.75;;;;;-1.59;74.32;98892.19;5035242;28;8855;-76
2023/04/04 02:39:43;;;;;;;;;23.50;20.00;;;;;-2.09;75.95;98899.84;5121804;27;8870;-75
2023/04/04 02:42:12;;;;;;;;;14.00;12.50;;;;;-1.75;75.44;98890.16;5131050;27;8851;-78
2023/04/04 02:44:41;;;;;;;;;17.00;15.25;;;;;-1.88;75.78;98891.69;5092630;28;8863;-76
2023/04/04 02:47:15;;;;;;;;;13.00;12.25;;;;;-1.80;76.38;98884.09;5070394;28;8878;-76
2023/04/04 02:49:46;;;;;;;;;16.75;15.50;;;;;-1.83;76.31;98897.75;5066080;28;8839;-76
2023/04/04 02:52:15;;;;;;;;;14.00;14.00;;;;;-1.91;76.09;98879.59;5100248;28;8842;-76
2023/04/04 02:54:47;;;;;;;;;13.00;13.00;;;;;-1.83;75.86;98882.31;5081361;28;8854;-76
2023/04/04 02:57:26;;;;;;;;;13.50;12.25;;;;;-1.99;76.42;98885.47;5085419;28;8850;-76
2023/04/04 02:59:54;;;;;;;;;12.50;11.50;;;;;-1.99;76.97;98883.75;5019077;28;8891;-76
2023/04/04 03:02:25;;;;;;;;;15.50;15.50;;;;;-1.96;77.10;98880.34;5068698;28;8862;-77
2023/04/04 03:04:54;;;;;;;;;12.50;12.50;;;;;-2.44;78.20;98876.84;5067948;28;8859;-77
2023/04/04 03:07:23;;;;;;;;;9.25;9.25;;;;;-2.25;78.56;98864.34;5053201;28;8833;-76
2023/04/04 03:09:53;;;;;;;;;15.25;12.75;;;;;-2.49;78.48;98883.59;5083209;28;8855;-77
2023/04/04 03:12:22;;;;;;;;;9.00;7.50;;;;;-2.32;78.83;98860.78;5067794;28;9002;-75
2023/04/04 03:14:51;;;;;;;;;14.25;11.50;;;;;-2.62;79.94;98876.44;5080286;28;8863;-76
2023/04/04 03:17:20;;;;;;;;;16.00;12.25;;;;;-2.72;79.89;98875.38;5049388;28;8944;-76
2023/04/04 03:19:50;;;;;;;;;9.50;9.00;;;;;-2.90;80.75;98869.00;5067943;28;9084;-76
2023/04/04 03:22:20;;;;;;;;;15.75;15.75;;;;;-2.49;79.55;98897.34;5065523;28;8836;-75
2023/04/04 03:24:48;;;;;;;;;21.25;16.00;;;;;-2.64;79.88;98885.84;5067444;28;8936;-75
2023/04/04 03:27:17;;;;;;;;;19.50;16.00;;;;;-2.60;80.10;98879.91;5083482;28;8902;-76
2023/04/04 03:29:45;;;;;;;;;19.00;17.50;;;;;-2.76;80.27;98889.03;5075763;28;8834;-76
2023/04/04 03:32:14;;;;;;;;;20.50;18.75;;;;;-2.80;80.93;98893.22;5062574;28;9387;-76
2023/04/04 03:34:43;;;;;;;;;17.25;13.25;;;;;-2.82;80.72;98891.47;5053115;28;8910;-76
2023/04/04 03:37:13;;;;;;;;;17.00;16.00;;;;;-2.70;80.74;98894.28;5032538;28;8865;-76
2023/04/04 03:39:42;;;;;;;;;20.75;18.75;;;;;-2.97;81.35;98907.41;5047862;28;8891;-76
2023/04/04 03:42:12;;;;;;;;;15.00;13.00;;;;;-2.91;80.69;98907.53;5045239;28;8899;-76
2023/04/04 03:44:41;;;;;;;;;33.00;27.75;;;;;-2.83;81.61;98898.28;5047646;28;8890;-76
2023/04/04 03:47:16;;;;;;;;;8.00;8.00;;;;;-2.64;80.14;98891.00;5047466;28;8848;-75
2023/04/04 03:49:45;;;;;;;;;14.75;14.25;;;;;-2.80;80.34;98893.22;5031390;28;8852;-75
2023/04/04 03:52:16;;;;;;;;;12.75;12.00;;;;;-2.80;80.66;98884.66;5048066;28;8839;-76
2023/04/04 03:54:45;;;;;;;;;14.00;13.00;;;;;-2.66;80.31;98909.84;5031126;28;8847;-75
2023/04/04 03:57:14;;;;;;;;;20.00;15.50;;;;;-2.97;81.10;98916.00;5044333;28;9648;-76
2023/04/04 03:59:44;;;;;;;;;16.75;14.50;;;;;-2.83;81.15;98912.88;4992760;28;8870;-76
2023/04/04 04:02:13;;;;;;;;;17.50;16.25;;;;;-2.85;80.43;98912.81;5051256;28;8857;-76
2023/04/04 04:04:41;;;;;;;;;15.00;15.00;;;;;-2.64;80.07;98893.56;5050012;28;8918;-76
2023/04/04 04:07:10;;;;;;;;;15.25;14.00;;;;;-2.72;80.69;98893.41;5018363;28;8838;-78
2023/04/04 04:09:41;;;;;;;;;8.00;6.75;;;;;-2.88;81.14;98907.63;5084457;28;8979;-77
2023/04/04 04:12:09;;;;;;;;;14.75;12.75;;;;;-3.06;81.86;98910.63;5067854;28;9718;-77
2023/04/04 04:14:38;;;;;;;;;15.75;12.00;;;;;-3.11;82.23;98907.06;5075661;28;8890;-77
2023/04/04 04:17:08;;;;;;;;;17.75;15.00;;;;;-2.77;81.07;98907.84;5067328;28;8845;-76
2023/04/04 04:19:37;;;;;;;;;16.25;13.75;;;;;-2.90;80.70;98920.44;5086981;28;8862;-77
2023/04/04 04:22:05;;;;;;;;;32.50;30.00;;;;;-2.78;80.75;98899.28;5071077;28;9595;-76
2023/04/04 04:24:34;;;;;;;;;7.25;6.75;;;;;-2.90;81.23;98917.00;5054382;28;8854;-77
2023/04/04 04:27:06;;;;;;;;;16.75;16.75;;;;;-3.01;80.83;98944.19;5087790;28;8851;-76
2023/04/04 04:29:35;;;;;;;;;22.00;18.50;;;;;-3.08;80.97;98938.00;5085009;28;8902;-75
2023/04/04 04:32:05;;;;;;;;;12.25;12.25;;;;;-2.92;81.43;98924.69;5090397;28;8862;-76
2023/04/04 04:34:38;;;;;;;;;17.75;14.50;;;;;-2.90;81.43;98929.88;5072753;28;8856;-77
2023/04/04 04:37:06;;;;;;;;;15.25;11.75;;;;;-2.96;81.44;98938.31;5119927;27;8847;-77
2023/04/04 04:39:42;;;;;;;;;22.00;18.00;;;;;-3.05;81.43;98948.38;5015700;28;8854;-76
2023/04/04 04:42:35;;;;;;;;;13.25;12.25;;;;;-2.87;82.04;98937.63;5077564;28;8962;-76
2023/04/04 04:45:07;;;;;;;;;17.00;15.50;;;;;-2.82;81.60;98936.06;5089197;28;8855;-76
2023/04/04 04:47:38;;;;;;;;;17.00;13.00;;;;;-2.90;82.02;98942.72;5070442;28;8848;-77
2023/04/04 04:50:09;;;;;;;;;19.00;15.00;;;;;-3.15;82.43;98944.72;5074181;28;9021;-76
2023/04/04 04:52:43;;;;;;;;;15.25;14.50;;;;;-3.10;82.92;98960.25;5072484;28;8972;-76
2023/04/04 04:55:14;;;;;;;;;14.75;14.00;;;;;-3.08;82.48;98961.16;5067086;28;8951;-76
2023/04/04 04:57:49;;;;;;;;;18.00;16.00;;;;;-2.80;81.59;98949.81;5050192;28;8859;-75
2023/04/04 05:00:23;;;;;;;;;12.00;11.50;;;;;-3.22;82.77;98958.25;5031731;28;8867;-76
2023/04/04 05:02:54;;;;;;;;;14.00;13.00;;;;;-2.92;82.04;98952.97;5063846;28;8880;-77
2023/04/04 05:05:33;;;;;;;;;12.75;11.50;;;;;-3.10;82.60;98955.09;5050281;28;8867;-76
2023/04/04 05:08:07;;;;;;;;;22.50;18.50;;;;;-3.01;82.60;98959.59;5066141;28;8966;-78
2023/04/04 05:10:40;;;;;;;;;21.25;18.50;;;;;-3.08;82.69;98967.16;5083692;28;9671;-76
2023/04/04 05:13:12;;;;;;;;;15.75;13.50;;;;;-3.19;83.49;98972.88;5066547;28;8870;-76
2023/04/04 05:15:46;;;;;;;;;17.50;16.75;;;;;-3.12;83.20;98967.91;5050511;28;8863;-77
2023/04/04 05:18:17;;;;;;;;;27.00;22.25;;;;;-3.21;83.36;98959.97;5066431;28;8948;-77
2023/04/04 05:20:51;;;;;;;;;24.50;21.75;;;;;-3.32;84.51;98967.44;5065490;28;9002;-77
2023/04/04 05:23:22;;;;;;;;;21.75;21.25;;;;;-3.19;83.29;98966.00;5066329;28;8890;-77
2023/04/04 05:25:52;;;;;;;;;20.00;16.50;;;;;-2.99;83.00;98965.66;5048959;28;9669;-76
2023/04/04 05:28:24;;;;;;;;;29.50;27.25;;;;;-3.39;83.51;98978.38;5079980;28;8838;-77
2023/04/04 05:30:57;;;;;;;;;24.50;22.75;;;;;-3.27;83.68;98965.81;5082747;28;8848;-77
2023/04/04 05:33:29;;;;;;;;;33.50;25.75;;;;;-3.47;85.10;98962.75;5087539;28;8956;-77
2023/04/04 05:36:10;;;;;;;;;24.50;24.00;;;;;-3.52;85.44;98976.31;5083156;28;8865;-77
2023/04/04 05:38:43;;;;;;;;;18.75;16.50;;;;;-3.19;84.29;98945.44;5111644;27;8958;-75
2023/04/04 05:41:12;;;;;;;;;26.25;24.50;;;;;-3.48;84.60;98957.56;5061436;28;8939;-74
2023/04/04 05:43:44;;;;;;;;;28.50;25.25;;;;;-3.26;83.97;98943.59;5067582;28;8854;-75
2023/04/04 05:46:16;;;;;;;;;27.50;22.00;;;;;-3.08;83.59;98959.44;5087347;28;8844;-77
2023/04/04 05:48:50;;;;;;;;;28.75;25.00;;;;;-3.15;83.90;98962.72;5086001;28;8883;-74
2023/04/04 05:51:19;;;;;;;;;30.00;27.50;;;;;-3.26;83.81;98965.00;5057951;28;8875;-76
2023/04/04 05:53:56;;;;;;;;;35.75;31.75;;;;;-3.49;84.83;98961.84;5067085;28;8943;-75
2023/04/04 05:56:30;;;;;;;;;39.25;31.00;;;;;-3.16;83.77;98963.53;5046051;28;8884;-74
2023/04/04 05:59:03;;;;;;;;;29.75;27.25;;;;;-3.27;83.78;98954.69;5032475;28;8958;-75
2023/04/04 06:01:35;;;;;;;;;23.00;17.00;;;;;-3.08;83.22;98963.72;5025622;28;9899;-74
2023/04/04 06:04:10;;;;;;;;;17.75;17.00;;;;;-3.51;84.04;98957.47;5025782;28;8852;-75
2023/04/04 06:06:39;;;;;;;;;25.25;24.50;;;;;-3.35;83.45;98954.50;5009020;28;8872;-76
2023/04/04 06:09:09;;;;;;;;;25.00;22.25;;;;;-3.10;83.35;98950.81;5005031;28;8848;-76
2023/04/04 06:11:38;;;;;;;;;39.75;36.00;;;;;-3.37;84.36;98950.16;4985031;28;8870;-75
2023/04/04 06:14:11;;;;;;;;;34.75;31.75;;;;;-3.04;83.80;98952.66;5001565;28;8971;-76
2023/04/04 06:16:43;;;;;;;;;27.75;27.75;;;;;-3.12;83.87;98955.06;4975173;28;9034;-78
2023/04/04 06:19:13;;;;;;;;;30.00;28.00;;;;;-3.06;82.82;98947.47;4965737;28;9098;-75
2023/04/04 06:21:42;;;;;;;;;30.25;24.50;;;;;-2.93;83.27;98955.50;4966272;28;8862;-75
2023/04/04 06:24:13;;;;;;;;;30.75;30.50;;;;;-3.20;82.59;98954.00;4949606;28;8862;-75
2023/04/04 06:26:42;;;;;;;;;31.50;28.25;;;;;-3.02;82.47;98960.44;4952746;28;8850;-75
2023/04/04 06:29:13;;;;;;;;;31.00;28.50;;;;;-3.19;82.92;98965.16;5005404;28;8987;-76
2023/04/04 06:31:43;;;;;;;;;36.75;28.50;;;;;-3.11;83.21;98964.53;5005138;28;8869;-75
2023/04/04 06:34:21;;;;;;;;;42.00;35.75;;;;;-3.14;83.14;98959.28;5021945;28;9004;-75
2023/04/04 06:36:56;;;;;;;;;14.00;10.00;;;;;-3.20;83.39;98964.28;5008925;28;8899;-75
2023/04/04 06:39:30;;;;;;;;;41.75;31.25;;;;;-3.08;82.63;98974.84;4994148;28;9653;-76
2023/04/04 06:42:02;;;;;;;;;32.25;29.00;;;;;-3.16;83.14;98967.81;5016623;28;8863;-76
2023/04/04 06:44:35;;;;;;;;;38.00;33.25;;;;;-3.03;82.58;98971.53;5004614;28;8866;-75
2023/04/04 06:47:04;;;;;;;;;35.50;34.00;;;;;-2.98;82.42;98975.09;5043848;28;8881;-75
2023/04/04 06:49:34;;;;;;;;;37.75;31.75;;;;;-3.14;83.52;98973.84;5023544;28;9098;-77
2023/04/04 06:52:02;;;;;;;;;36.75;33.00;;;;;-3.36;83.63;98972.44;5084365;28;8879;-76
2023/04/04 06:54:32;;;;;;;;;33.75;30.75;;;;;-3.08;83.24;98974.84;5065103;28;9678;-76
2023/04/04 06:57:00;;;;;;;;;42.50;36.50;;;;;-3.03;82.78;98974.09;5028785;28;8851;-77
2023/04/04 06:59:29;;;;;;;;;34.75;31.75;;;;;-2.92;83.00;98977.81;5080253;28;8878;-76
2023/04/04 07:01:59;;;;;;;;;41.25;38.25;;;;;-3.22;83.12;98973.66;5070721;28;8885;-76
2023/04/04 07:04:33;;;;;;;;;37.25;32.25;;;;;-3.31;83.85;98973.44;5066410;28;8866;-76
2023/04/04 07:07:02;;;;;;;;;36.25;34.50;;;;;-3.26;84.57;98972.72;5065753;28;9025;-77
2023/04/04 07:09:31;;;;;;;;;36.50;27.25;;;;;-3.38;84.83;98968.97;5073910;28;8875;-76
2023/04/04 07:11:59;;;;;;;;;33.25;28.75;;;;;-3.50;84.63;98983.22;5078347;28;8858;-78
2023/04/04 07:14:28;;;;;;;;;43.50;36.50;;;;;-3.62;84.90;98977.78;5059638;28;8857;-76
2023/04/04 07:16:58;;;;;;;;;24.00;20.75;;;;;-3.73;86.03;98977.47;5048029;28;8985;-77
2023/04/04 07:19:31;;;;;;;;;29.50;26.75;;;;;-3.39;85.75;98992.91;5044810;28;8838;-74
2023/04/04 07:22:00;;;;;;;;;36.75;28.00;;;;;-3.12;85.36;98991.03;5046751;28;8854;-78
2023/04/04 07:24:29;;;;;;;;;33.50;32.00;;;;;-3.16;85.58;98998.66;5038559;28;8835;-77
2023/04/04 07:26:57;;;;;;;;;34.75;34.25;;;;;-3.31;85.56;99001.69;5046876;28;9020;-76
2023/04/04 07:29:30;;;;;;;;;47.75;43.00;;;;;-3.51;85.36;99009.75;5050890;28;8920;-78
2023/04/04 07:32:00;;;;;;;;;44.75;40.50;;;;;-3.66;86.16;98999.94;5061942;28;9786;-77
2023/04/04 07:34:29;;;;;;;;;36.50;30.50;;;;;-3.49;86.36;98997.81;5028686;28;9000;-76
2023/04/04 07:36:58;;;;;;;;;50.00;43.75;;;;;-3.68;86.13;99004.16;5061958;28;8854;-75
2023/04/04 07:39:27;;;;;;;;;28.75;28.75;;;;;-3.47;85.67;99005.53;5044381;28;8853;-75
2023/04/04 07:41:56;;;;;;;;;41.50;36.50;;;;;-3.64;85.12;99005.09;5042242;28;8944;-76
2023/04/04 07:44:24;;;;;;;;;49.50;43.50;;;;;-3.49;85.40;99004.63;5045080;28;8834;-75
2023/04/04 07:46:53;;;;;;;;;54.00;43.00;;;;;-3.39;85.82;99018.59;5072616;28;8990;-76
2023/04/04 07:49:38;;;;;;;;;42.50;38.50;;;;;-3.70;85.31;99026.34;5041684;28;8842;-78
2023/04/04 07:52:07;;;;;;;;;46.50;42.25;;;;;-3.20;84.65;99012.28;5059573;28;8856;-75
2023/04/04 07:54:36;;;;;;;;;57.00;49.75;;;;;-3.51;84.83;99021.72;5072583;28;8858;-75
2023/04/04 07:57:05;;;;;;;;;54.50;46.75;;;;;-3.63;86.47;99025.69;5053496;28;8888;-77
2023/04/04 07:59:34;;;;;;;;;56.25;37.75;;;;;-3.69;86.89;99002.41;5103563;28;8862;-76
2023/04/04 08:02:03;;;;;;;;;41.25;37.00;;;;;-3.52;86.06;99012.28;5071172;28;8900;-75
2023/04/04 08:04:31;;;;;;;;;50.50;43.00;;;;;-3.53;85.48;99018.22;5071164;28;8842;-75
2023/04/04 08:07:01;;;;;;;;;57.75;49.25;;;;;-3.12;84.91;99009.03;5069298;28;8838;-76
2023/04/04 08:09:33;;;;;;;;;46.75;41.75;;;;;-3.28;84.99;99017.19;5070821;28;8854;-75
2023/04/04 08:12:02;;;;;;;;;61.75;51.00;;;;;-3.65;85.64;99029.06;5052067;28;8877;-76
2023/04/04 08:14:31;;;;;;;;;57.75;45.75;;;;;-3.60;86.17;99014.66;5071139;28;8866;-75
2023/04/04 08:17:00;;;;;;;;;55.00;43.50;;;;;-3.36;85.93;99026.41;5070766;28;9049;-76
2023/04/04 08:19:29;;;;;;;;;50.00;39.50;;;;;-3.53;86.00;99031.94;5052018;28;8886;-77
2023/04/04 08:21:58;;;;;;;;;43.50;41.00;;;;;-3.41;85.83;99021.16;5070583;28;8862;-75
2023/04/04 08:24:28;;;;;;;;;26.25;23.75;;;;;-3.31;85.60;99024.84;5068427;28;8838;-75
2023/04/04 08:26:57;;;;;;;;;52.25;42.25;;;;;-3.52;85.49;99033.69;5071046;28;8842;-78
2023/04/04 08:29:33;;;;;;;;;37.75;32.50;;;;;-3.25;85.15;99023.28;5068200;28;8859;-75
2023/04/04 08:32:02;;;;;;;;;39.75;39.75;;;;;-3.13;84.88;99024.41;5067766;28;8859;-76
2023/04/04 08:34:32;;;;;;;;;48.50;45.25;;;;;-3.35;85.20;99020.44;5051104;28;8864;-75
2023/04/04 08:37:00;;;;;;;;;40.00;37.75;;;;;-3.22;85.02;99024.19;5068035;28;8848;-76
2023/04/04 08:39:30;;;;;;;;;39.75;35.50;;;;;-3.21;84.77;99025.94;5051264;28;8923;-76
2023/04/04 08:42:04;;;;;;;;;49.75;40.00;;;;;-3.17;84.70;99028.63;5063379;28;8854;-76
2023/04/04 08:44:35;;;;;;;;;38.75;27.00;;;;;-3.57;85.55;99032.69;5088518;28;8846;-78
2023/04/04 08:47:05;;;;;;;;;35.50;33.75;;;;;-3.41;85.13;99027.97;5085287;28;8855;-77
2023/04/04 08:49:38;;;;;;;;;43.00;38.50;;;;;-3.14;84.54;99041.56;5068004;28;8840;-79
2023/04/04 08:52:09;;;;;;;;;54.00;43.25;;;;;-3.19;84.57;99032.84;5068048;28;8864;-76
2023/04/04 08:54:40;;;;;;;;;43.25;41.00;;;;;-3.06;83.68;99041.75;5067757;28;9636;-77
2023/04/04 08:57:09;;;;;;;;;58.25;47.75;;;;;-3.20;83.69;99048.25;5047687;28;8893;-77
2023/04/04 08:59:38;;;;;;;;;47.25;43.00;;;;;-3.13;84.02;99053.59;5048704;28;8853;-77
2023/04/04 09:02:17;;;;;;;;;45.50;44.25;;;;;-3.26;84.13;99043.81;5088040;28;8945;-76
2023/04/04 09:04:48;;;;;;;;;46.50;39.50;;;;;-3.29;84.31;99054.00;5037923;28;9569;-77
2023/04/04 09:07:33;;;;;;;;;39.25;38.00;;;;;-3.05;84.26;99051.22;5070658;28;8851;-75
2023/04/04 09:10:09;;;;;;;;;57.50;47.00;;;;;-3.42;85.08;99062.22;5070777;28;8877;-77
2023/04/04 09:12:41;;;;;;;;;33.00;30.50;;;;;-2.97;84.41;99064.28;5087564;28;8859;-78
2023/04/04 09:15:11;;;;;;;;;43.00;42.00;;;;;-3.08;84.13;99066.56;5087463;28;9646;-76
2023/04/04 09:17:40;;;;;;;;;56.50;48.50;;;;;-2.92;83.80;99063.56;5070523;28;8831;-76
2023/04/04 09:20:37;;;;;;;;;56.75;45.25;;;;;-3.15;84.07;99070.69;5087197;28;8855;-75
2023/04/04 09:23:08;;;;;;;;;33.00;31.50;;;;;-2.67;82.59;99064.16;5070497;28;8847;-76
2023/04/04 09:25:45;;;;;;;;;47.25;37.00;;;;;-2.63;82.81;99071.13;5087617;28;8874;-77
2023/04/04 09:28:30;;;;;;;;;39.25;32.75;;;;;-2.88;82.95;99067.09;5088852;28;8856;-76
2023/04/04 09:31:01;;;;;;;;;48.00;42.50;;;;;-2.92;84.14;99072.94;5088548;28;8866;-76
2023/04/04 09:33:32;;;;;;;;;42.00;35.00;;;;;-2.81;83.18;99080.94;5082413;28;8862;-76
2023/04/04 09:36:04;;;;;;;;;41.25;36.00;;;;;-2.58;83.00;99073.78;5057037;28;8839;-76
2023/04/04 09:38:37;;;;;;;;;41.75;38.00;;;;;-2.94;83.76;99085.78;5076529;28;9098;-76
2023/04/04 09:41:09;;;;;;;;;40.75;33.25;;;;;-2.80;83.24;99088.72;5069212;28;8842;-77
2023/04/04 09:43:39;;;;;;;;;48.75;45.50;;;;;-2.70;83.96;99074.38;5069108;28;8939;-78
2023/04/04 09:46:08;;;;;;;;;46.25;41.75;;;;;-3.20;84.49;99081.66;5067329;28;8850;-76
2023/04/04 09:48:37;;;;;;;;;34.75;29.50;;;;;-2.97;84.41;99083.13;5017907;28;8854;-77
2023/04/04 09:51:07;;;;;;;;;47.75;37.00;;;;;-2.90;84.81;99086.75;5067387;28;8842;-77
2023/04/04 09:53:36;;;;;;;;;48.25;37.50;;;;;-3.09;84.60;99086.25;5068896;28;8968;-75
2023/04/04 09:56:08;;;;;;;;;37.00;32.00;;;;;-2.67;83.81;99079.59;5084594;28;8869;-76
2023/04/04 09:58:39;;;;;;;;;43.25;39.25;;;;;-2.97;84.55;99078.00;5084162;28;8881;-78
2023/04/04 10:01:18;;;;;;;;;43.00;30.75;;;;;-2.81;84.21;99079.25;5054898;28;8881;-76
2023/04/04 10:03:52;;;;;;;;;27.00;21.50;;;;;-2.97;84.78;99080.56;5067839;28;8846;-77
2023/04/04 10:06:22;;;;;;;;;45.00;38.50;;;;;-3.16;85.30;99088.63;5067679;28;8947;-76
2023/04/04 10:08:51;;;;;;;;;31.50;27.75;;;;;-3.21;85.34;99085.06;5067325;28;8869;-77
2023/04/04 10:11:32;;;;;;;;;32.75;27.75;;;;;-2.99;85.69;99084.78;5100706;28;8961;-77
2023/04/04 10:14:02;;;;;;;;;33.50;30.00;;;;;-2.63;84.06;99075.41;5068857;28;8866;-79
2023/04/04 10:16:32;;;;;;;;;34.25;32.75;;;;;-2.71;84.47;99076.09;5068419;28;8866;-80
2023/04/04 10:19:03;;;;;;;;;41.00;36.00;;;;;-2.71;83.73;99082.94;5051104;28;8909;-78
2023/04/04 10:21:32;;;;;;;;;34.00;30.75;;;;;-2.53;83.92;99080.78;5084299;28;8827;-77
2023/04/04 10:24:07;;;;;;;;;40.00;33.50;;;;;-2.82;83.19;99097.22;5084582;28;8839;-76
2023/04/04 10:26:38;;;;;;;;;39.50;35.00;;;;;-2.88;84.92;99082.50;5121418;27;8855;-78
2023/04/04 10:29:07;;;;;;;;;41.00;33.50;;;;;-2.56;83.89;99085.88;5121493;27;8844;-76
2023/04/04 10:31:42;;;;;;;;;28.75;26.50;;;;;-2.76;84.68;99095.66;5070535;28;8828;-78
2023/04/04 10:34:18;;;;;;;;;43.25;32.25;;;;;-2.78;84.35;99099.91;5104632;28;8948;-79
2023/04/04 10:36:54;;;;;;;;;40.50;37.75;;;;;-3.24;85.61;99101.28;5078985;28;8885;-78
2023/04/04 10:39:26;;;;;;;;;48.25;42.75;;;;;-3.06;85.47;99112.03;5050367;28;9655;-80
2023/04/04 10:41:58;;;;;;;;;42.00;35.50;;;;;-3.00;85.62;99090.75;5066551;28;8842;-79
2023/04/04 10:44:30;;;;;;;;;31.00;28.00;;;;;-3.00;85.45;99095.03;5050269;28;8858;-77
2023/04/04 10:47:08;;;;;;;;;41.25;30.75;;;;;-2.94;86.05;99102.91;5068121;28;8858;-78
2023/04/04 10:49:38;;;;;;;;;44.75;37.50;;;;;-2.92;84.90;99103.81;5031411;28;8869;-79
2023/04/04 10:52:09;;;;;;;;;45.25;42.50;;;;;-2.88;86.09;99109.09;5048637;28;9054;-77
2023/04/04 10:54:39;;;;;;;;;27.50;24.00;;;;;-2.87;85.38;99104.81;5065373;28;8864;-76
2023/04/04 10:57:09;;;;;;;;;40.00;36.25;;;;;-2.70;85.49;99106.09;5048239;28;8856;-76
2023/04/04 10:59:56;;;;;;;;;53.25;45.25;;;;;-2.90;85.72;99105.63;5064937;28;9160;-78
2023/04/04 11:02:45;;;;;;;;;37.25;31.50;;;;;-2.96;85.95;99104.56;5065019;28;8871;-78
2023/04/04 11:05:21;;;;;;;;;49.25;35.25;;;;;-2.87;86.20;99104.81;5064830;28;8851;-79
2023/04/04 11:07:56;;;;;;;;;32.00;32.00;;;;;-3.16;87.29;99110.06;5065481;28;8848;-77
2023/04/04 11:10:37;;;;;;;;;27.75;26.00;;;;;-3.06;86.24;99106.88;5048227;28;9770;-78
2023/04/04 11:13:12;;;;;;;;;33.00;32.00;;;;;-3.29;87.72;99116.56;5061692;28;8846;-78
2023/04/04 11:15:55;;;;;;;;;24.25;23.25;;;;;-2.87;87.14;99105.66;5045079;28;8854;-77
2023/04/04 11:18:46;;;;;;;;;36.25;34.50;;;;;-2.81;87.42;99106.66;5046385;28;9705;-77
2023/04/04 11:21:18;;;;;;;;;35.00;29.00;;;;;-2.97;87.75;99108.00;5073143;28;8848;-78
2023/04/04 11:24:15;;;;;;;;;28.00;28.00;;;;;-3.01;87.71;99111.31;5069264;28;8866;-75
2023/04/04 11:26:45;;;;;;;;;37.25;31.00;;;;;-2.79;87.06;99105.91;5084808;28;8844;-76
2023/04/04 11:29:51;;;;;;;;;40.25;33.50;;;;;-3.11;87.60;99116.19;5074936;28;8886;-76
2023/04/04 11:32:43;;;;;;;;;32.50;28.50;;;;;-2.96;86.68;99112.28;5082788;28;8846;-76
2023/04/04 11:35:24;;;;;;;;;35.25;29.25;;;;;-2.84;86.95;99111.75;5076415;28;8851;-73
2023/04/04 11:38:02;;;;;;;;;35.00;29.00;;;;;-3.18;87.13;99113.44;5083634;28;9624;-76
2023/04/04 11:40:38;;;;;;;;;43.75;32.00;;;;;-2.71;86.71;99103.53;5079807;28;9584;-75
2023/04/04 11:43:11;;;;;;;;;34.25;31.75;;;;;-2.89;86.76;99109.91;5079973;28;8848;-77
2023/04/04 11:45:47;;;;;;;;;32.00;27.50;;;;;-2.80;87.05;99111.00;5085709;28;9617;-74
2023/04/04 11:48:18;;;;;;;;;24.25;23.75;;;;;-2.97;87.65;99119.13;5068995;28;8844;-75